Time;durP1;ratioP1;P1;durP2;ratioP2;P2;SDS_P1;SDS_P2;PMS_P1;PMS_P2;Temp;Humidity;BMP_temperature;BMP_pressure;BME280_temperature;BME280_humidity;BME280_pressure;Samples;Min_cycle;Max_cycle;Signal;HPM_P1;HPM_P2
2023/04/28 00:01:59;;;;;;;13.88;6.18;;;;;;;;;;5042372;28;20021;-80
2023/04/28 00:04:25;;;;;;;11.20;5.88;;;;;;;;;;5041489;28;20026;-80
2023/04/28 00:06:51;;;;;;;11.48;7.05;;;;;;;;;;5041896;28;20033;-80
2023/04/28 00:09:23;;;;;;;13.45;7.43;;;;;;;;;;5045965;28;20025;-80
2023/04/28 00:11:49;;;;;;;11.98;6.93;;;;;;;;;;5047231;28;20017;-80
2023/04/28 00:14:22;;;;;;;9.60;6.47;;;;;;;;;;5023381;28;20026;-80
2023/04/28 00:16:48;;;;;;;10.88;6.68;;;;;;;;;;5035957;28;20029;-80
2023/04/28 00:19:14;;;;;;;11.85;6.13;;;;;;;;;;5040338;28;20097;-80
2023/04/28 00:21:40;;;;;;;10.52;5.97;;;;;;;;;;5040650;28;20056;-80
2023/04/28 00:24:06;;;;;;;8.52;6.03;;;;;;;;;;5047197;28;20080;-80
2023/04/28 00:26:32;;;;;;;11.88;6.47;;;;;;;;;;5051999;28;20036;-80
2023/04/28 00:28:58;;;;;;;10.02;6.68;;;;;;;;;;5041928;28;20028;-81
2023/04/28 00:31:27;;;;;;;13.30;6.43;;;;;;;;;;5045502;28;20042;-80
2023/04/28 00:33:53;;;;;;;8.02;4.80;;;;;;;;;;5040052;28;20064;-81
2023/04/28 00:36:19;;;;;;;10.63;6.88;;;;;;;;;;5045071;28;20025;-81
2023/04/28 00:38:45;;;;;;;10.15;5.63;;;;;;;;;;5051362;28;20022;-81
2023/04/28 00:41:11;;;;;;;12.77;6.75;;;;;;;;;;5049956;28;20052;-80
2023/04/28 00:43:44;;;;;;;11.23;6.20;;;;;;;;;;5041563;28;20045;-80
2023/04/28 00:46:11;;;;;;;10.07;5.97;;;;;;;;;;5057876;28;20084;-80
2023/04/28 00:48:38;;;;;;;9.45;5.82;;;;;;;;;;5060585;28;20099;-80
2023/04/28 00:51:05;;;;;;;8.13;5.75;;;;;;;;;;5051529;28;20039;-80
2023/04/28 00:53:31;;;;;;;10.30;5.40;;;;;;;;;;5050758;28;20457;-80
2023/04/28 00:55:57;;;;;;;10.55;5.55;;;;;;;;;;5035129;28;20025;-80
2023/04/28 00:58:24;;;;;;;7.40;5.10;;;;;;;;;;5027717;28;20052;-80
2023/04/28 01:00:50;;;;;;;10.13;6.20;;;;;;;;;;5039778;28;20037;-81
2023/04/28 01:03:22;;;;;;;7.90;4.70;;;;;;;;;;5052482;28;20105;-80
2023/04/28 01:05:48;;;;;;;7.30;5.20;;;;;;;;;;5038728;28;20415;-80
2023/04/28 01:08:14;;;;;;;10.90;6.18;;;;;;;;;;5044594;28;20075;-81
2023/04/28 01:10:44;;;;;;;10.60;5.57;;;;;;;;;;5053545;28;20029;-80
2023/04/28 01:13:09;;;;;;;7.82;5.03;;;;;;;;;;5046165;28;20021;-81
2023/04/28 01:15:35;;;;;;;8.38;5.20;;;;;;;;;;5050036;28;20087;-80
2023/04/28 01:18:01;;;;;;;10.70;5.93;;;;;;;;;;5036382;28;20025;-80
2023/04/28 01:20:27;;;;;;;10.25;5.60;;;;;;;;;;5036640;28;20038;-80
2023/04/28 01:22:53;;;;;;;8.75;4.80;;;;;;;;;;5036984;28;20059;-80
2023/04/28 01:25:19;;;;;;;8.57;5.40;;;;;;;;;;5036967;28;20041;-80
2023/04/28 01:27:45;;;;;;;10.07;5.55;;;;;;;;;;5037312;28;20022;-80
2023/04/28 01:30:11;;;;;;;13.65;6.60;;;;;;;;;;5048743;28;20036;-80
2023/04/28 01:32:37;;;;;;;10.82;5.78;;;;;;;;;;5043427;28;20045;-81
2023/04/28 01:35:03;;;;;;;9.82;5.43;;;;;;;;;;5058303;28;20134;-81
2023/04/28 01:37:29;;;;;;;13.93;5.20;;;;;;;;;;5032352;28;20099;-81
2023/04/28 01:40:04;;;;;;;12.13;5.30;;;;;;;;;;5000855;28;20033;-81
2023/04/28 01:42:48;;;;;;;10.95;6.45;;;;;;;;;;5031239;28;20028;-80
2023/04/28 01:45:14;;;;;;;9.75;4.97;;;;;;;;;;5039652;28;20028;-80
2023/04/28 01:47:40;;;;;;;13.25;6.80;;;;;;;;;;5058752;28;20105;-80
2023/04/28 01:50:07;;;;;;;9.70;5.60;;;;;;;;;;5056226;28;20033;-80
2023/04/28 01:52:33;;;;;;;10.18;5.38;;;;;;;;;;5033906;28;20057;-80
2023/04/28 01:54:59;;;;;;;7.90;4.70;;;;;;;;;;5031467;28;20406;-80
2023/04/28 01:57:27;;;;;;;10.20;5.43;;;;;;;;;;5043503;28;20112;-81
2023/04/28 01:59:53;;;;;;;10.48;4.72;;;;;;;;;;5038837;28;20116;-80
2023/04/28 02:02:19;;;;;;;7.60;5.07;;;;;;;;;;5043698;28;20028;-80
2023/04/28 02:04:45;;;;;;;10.07;5.75;;;;;;;;;;5029816;28;20099;-81
2023/04/28 02:07:11;;;;;;;11.30;5.68;;;;;;;;;;5037354;28;20464;-80
2023/04/28 02:09:37;;;;;;;10.93;6.00;;;;;;;;;;5038476;28;20037;-81
2023/04/28 02:12:03;;;;;;;10.65;5.55;;;;;;;;;;5037965;28;20025;-81
2023/04/28 02:14:31;;;;;;;10.70;6.07;;;;;;;;;;5038478;28;20030;-80
2023/04/28 02:16:58;;;;;;;10.18;5.40;;;;;;;;;;5047738;28;20020;-80
2023/04/28 02:19:23;;;;;;;11.30;6.25;;;;;;;;;;5041509;28;20024;-80
2023/04/28 02:21:49;;;;;;;8.20;5.28;;;;;;;;;;5037767;28;20101;-80
2023/04/28 02:24:17;;;;;;;7.75;5.05;;;;;;;;;;5038005;28;20442;-80
2023/04/28 02:26:43;;;;;;;12.05;6.10;;;;;;;;;;5019957;28;20033;-80
2023/04/28 02:29:09;;;;;;;10.02;6.07;;;;;;;;;;5040282;28;20092;-80
2023/04/28 02:31:35;;;;;;;8.68;5.30;;;;;;;;;;5057204;28;20112;-80
2023/04/28 02:34:00;;;;;;;10.63;5.85;;;;;;;;;;5056055;28;20056;-80
2023/04/28 02:36:26;;;;;;;9.85;6.05;;;;;;;;;;5046354;28;20082;-81
2023/04/28 02:38:52;;;;;;;9.90;5.88;;;;;;;;;;5040556;28;20026;-80
2023/04/28 02:41:30;;;;;;;11.93;6.38;;;;;;;;;;5018865;28;20033;-80
2023/04/28 02:44:05;;;;;;;10.13;5.43;;;;;;;;;;5023869;28;20543;-80
2023/04/28 02:46:31;;;;;;;9.82;6.40;;;;;;;;;;5041987;28;20039;-80
2023/04/28 02:48:57;;;;;;;11.75;6.53;;;;;;;;;;5042076;28;20104;-80
2023/04/28 02:51:23;;;;;;;12.63;6.10;;;;;;;;;;5038037;28;20036;-80
2023/04/28 02:53:49;;;;;;;9.60;5.68;;;;;;;;;;5056694;28;20626;-80
2023/04/28 02:56:16;;;;;;;12.48;4.95;;;;;;;;;;5058421;28;20047;-80
2023/04/28 02:58:41;;;;;;;9.80;5.72;;;;;;;;;;5039371;28;20025;-80
2023/04/28 03:01:07;;;;;;;9.82;4.60;;;;;;;;;;5033043;28;20494;-80
2023/04/28 03:03:33;;;;;;;8.82;5.70;;;;;;;;;;5038164;28;20071;-80
2023/04/28 03:06:00;;;;;;;11.93;6.88;;;;;;;;;;5038582;28;20025;-80
2023/04/28 03:08:26;;;;;;;12.93;7.18;;;;;;;;;;5024041;28;20052;-80
2023/04/28 03:10:52;;;;;;;10.80;6.57;;;;;;;;;;5024856;28;20040;-80
2023/04/28 03:13:18;;;;;;;11.50;6.82;;;;;;;;;;5019440;28;20058;-80
2023/04/28 03:15:44;;;;;;;10.30;5.50;;;;;;;;;;5039265;28;20025;-80
2023/04/28 03:18:10;;;;;;;10.05;5.10;;;;;;;;;;5032793;28;20026;-80
2023/04/28 03:20:36;;;;;;;10.48;6.38;;;;;;;;;;5048326;28;20033;-80
2023/04/28 03:23:02;;;;;;;12.57;6.07;;;;;;;;;;5031678;28;20022;-80
2023/04/28 03:25:28;;;;;;;12.30;7.00;;;;;;;;;;5042325;28;20040;-80
2023/04/28 03:28:10;;;;;;;10.10;5.93;;;;;;;;;;5042665;28;20037;-81
2023/04/28 03:30:36;;;;;;;11.23;6.65;;;;;;;;;;5045279;28;20112;-81
2023/04/28 03:33:02;;;;;;;12.48;6.60;;;;;;;;;;5058050;28;20090;-80
2023/04/28 03:35:28;;;;;;;9.82;6.28;;;;;;;;;;5019982;28;20034;-80
2023/04/28 03:37:54;;;;;;;12.10;6.35;;;;;;;;;;5020503;28;20021;-81
2023/04/28 03:40:20;;;;;;;10.63;6.40;;;;;;;;;;5050159;28;20029;-80
2023/04/28 03:42:46;;;;;;;11.40;6.22;;;;;;;;;;5054852;28;20021;-80
2023/04/28 03:45:12;;;;;;;13.43;7.68;;;;;;;;;;5047226;28;20030;-80
2023/04/28 03:47:38;;;;;;;13.57;7.35;;;;;;;;;;5034772;28;20029;-80
2023/04/28 03:50:05;;;;;;;11.13;6.65;;;;;;;;;;5034957;28;20036;-80
2023/04/28 03:52:31;;;;;;;13.23;7.25;;;;;;;;;;5035315;28;20057;-80
2023/04/28 03:54:57;;;;;;;10.23;6.43;;;;;;;;;;5034835;28;20029;-80
2023/04/28 03:57:23;;;;;;;14.40;7.68;;;;;;;;;;5017236;28;20080;-80
2023/04/28 03:59:49;;;;;;;12.23;7.40;;;;;;;;;;5047788;28;20369;-81
2023/04/28 04:02:15;;;;;;;10.10;6.22;;;;;;;;;;5035414;28;20025;-80
2023/04/28 04:04:41;;;;;;;10.52;6.50;;;;;;;;;;5034533;28;20582;-80
2023/04/28 04:07:07;;;;;;;11.57;7.45;;;;;;;;;;5034807;28;20082;-80
2023/04/28 04:09:40;;;;;;;11.80;7.57;;;;;;;;;;5047420;28;20028;-80
2023/04/28 04:12:21;;;;;;;14.05;7.65;;;;;;;;;;5035019;28;20036;-80
2023/04/28 04:14:47;;;;;;;12.73;6.97;;;;;;;;;;5042468;28;20040;-80
2023/04/28 04:17:13;;;;;;;15.10;7.18;;;;;;;;;;5034765;28;20028;-80
2023/04/28 04:19:40;;;;;;;14.10;7.07;;;;;;;;;;5034056;28;20112;-80
2023/04/28 04:22:06;;;;;;;14.15;7.13;;;;;;;;;;5034340;28;20017;-81
2023/04/28 04:24:32;;;;;;;12.93;7.40;;;;;;;;;;5034014;28;20088;-80
2023/04/28 04:26:58;;;;;;;13.38;7.03;;;;;;;;;;5033614;28;20032;-80
2023/04/28 04:29:24;;;;;;;14.85;7.10;;;;;;;;;;5033831;28;20108;-80
2023/04/28 04:31:50;;;;;;;12.75;7.35;;;;;;;;;;5037960;28;20468;-81
2023/04/28 04:34:17;;;;;;;15.68;8.50;;;;;;;;;;5036480;28;20120;-79
2023/04/28 04:36:43;;;;;;;13.45;7.20;;;;;;;;;;5031069;28;20480;-79
2023/04/28 04:39:09;;;;;;;14.73;7.53;;;;;;;;;;5039139;28;20022;-79
2023/04/28 04:41:35;;;;;;;15.18;8.15;;;;;;;;;;5051187;28;20037;-79
2023/04/28 04:44:01;;;;;;;13.10;7.80;;;;;;;;;;5042349;28;20021;-79
2023/04/28 04:46:27;;;;;;;13.52;8.30;;;;;;;;;;5038506;28;20029;-79
2023/04/28 04:48:53;;;;;;;16.92;8.60;;;;;;;;;;5020871;28;20636;-79
2023/04/28 04:51:19;;;;;;;15.95;8.57;;;;;;;;;;5032448;28;20042;-79
2023/04/28 04:53:46;;;;;;;13.25;7.95;;;;;;;;;;5035337;28;20036;-79
2023/04/28 04:56:12;;;;;;;14.57;7.10;;;;;;;;;;5028710;28;20125;-79
2023/04/28 04:58:38;;;;;;;11.15;6.45;;;;;;;;;;5022354;28;20451;-79
2023/04/28 05:01:04;;;;;;;16.25;8.18;;;;;;;;;;5027186;28;20499;-79
2023/04/28 05:03:30;;;;;;;15.95;8.23;;;;;;;;;;5037354;28;20029;-79
2023/04/28 05:05:56;;;;;;;14.25;7.68;;;;;;;;;;5018000;28;20033;-79
2023/04/28 05:08:22;;;;;;;13.45;7.38;;;;;;;;;;5000395;28;20036;-79
2023/04/28 05:10:48;;;;;;;11.13;6.45;;;;;;;;;;5036823;28;20026;-79
2023/04/28 05:13:14;;;;;;;9.57;5.63;;;;;;;;;;5020756;28;20033;-79
2023/04/28 05:15:40;;;;;;;17.52;8.85;;;;;;;;;;5035682;28;20021;-79
2023/04/28 05:18:09;;;;;;;15.27;8.52;;;;;;;;;;5052352;28;20036;-79
2023/04/28 05:20:35;;;;;;;14.27;7.90;;;;;;;;;;5033380;28;20120;-79
2023/04/28 05:23:01;;;;;;;15.45;8.10;;;;;;;;;;5045056;28;20017;-79
2023/04/28 05:25:27;;;;;;;19.17;10.27;;;;;;;;;;5040429;28;20030;-79
2023/04/28 05:27:54;;;;;;;17.08;8.00;;;;;;;;;;5038872;28;20032;-79
2023/04/28 05:30:20;;;;;;;13.18;7.95;;;;;;;;;;5056835;28;20033;-79
2023/04/28 05:32:46;;;;;;;14.27;7.57;;;;;;;;;;5039972;28;20057;-80
2023/04/28 05:35:19;;;;;;;14.40;7.95;;;;;;;;;;5012771;28;20086;-80
2023/04/28 05:37:45;;;;;;;17.65;8.32;;;;;;;;;;5036398;28;20025;-80
2023/04/28 05:40:11;;;;;;;15.10;7.72;;;;;;;;;;5021108;28;20029;-79
2023/04/28 05:42:37;;;;;;;16.73;9.30;;;;;;;;;;5036550;28;20029;-79
2023/04/28 05:45:03;;;;;;;16.40;8.90;;;;;;;;;;5023166;28;20064;-79
2023/04/28 05:47:30;;;;;;;17.67;8.57;;;;;;;;;;5010277;28;20034;-79
2023/04/28 05:49:55;;;;;;;16.95;9.18;;;;;;;;;;5037937;28;20412;-79
2023/04/28 05:52:22;;;;;;;18.15;9.23;;;;;;;;;;5024469;28;20091;-79
2023/04/28 05:54:47;;;;;;;15.23;9.38;;;;;;;;;;5020813;28;20038;-80
2023/04/28 05:57:14;;;;;;;16.73;8.80;;;;;;;;;;5024448;28;20032;-80
2023/04/28 05:59:40;;;;;;;15.98;8.57;;;;;;;;;;5023540;28;20025;-80
2023/04/28 06:02:06;;;;;;;14.55;8.98;;;;;;;;;;5040657;28;20026;-80
2023/04/28 06:04:32;;;;;;;18.15;9.45;;;;;;;;;;5022828;28;20694;-79
2023/04/28 06:06:58;;;;;;;17.83;9.98;;;;;;;;;;5003448;28;20037;-80
2023/04/28 06:09:24;;;;;;;18.08;9.45;;;;;;;;;;5028263;28;20030;-80
2023/04/28 06:11:50;;;;;;;16.13;9.48;;;;;;;;;;5024743;28;20037;-79
2023/04/28 06:14:16;;;;;;;17.70;9.52;;;;;;;;;;5021368;28;20108;-79
2023/04/28 06:16:43;;;;;;;18.35;7.90;;;;;;;;;;5021081;28;20083;-80
2023/04/28 06:19:09;;;;;;;21.15;9.35;;;;;;;;;;5040675;28;20060;-79
2023/04/28 06:21:41;;;;;;;17.85;9.50;;;;;;;;;;5024591;28;20079;-79
2023/04/28 06:24:14;;;;;;;18.48;9.80;;;;;;;;;;5015302;28;20033;-79
2023/04/28 06:26:40;;;;;;;15.18;7.10;;;;;;;;;;5017122;28;20542;-78
2023/04/28 06:29:06;;;;;;;15.48;8.68;;;;;;;;;;5016848;28;20025;-79
2023/04/28 06:31:32;;;;;;;18.05;9.10;;;;;;;;;;5016749;28;20033;-78
2023/04/28 06:33:58;;;;;;;16.52;8.82;;;;;;;;;;5013422;28;20046;-80
2023/04/28 06:36:25;;;;;;;17.67;9.38;;;;;;;;;;4999618;28;20085;-80
2023/04/28 06:38:51;;;;;;;15.55;8.10;;;;;;;;;;4995674;28;20024;-80
2023/04/28 06:41:17;;;;;;;18.05;9.10;;;;;;;;;;4994605;28;20035;-79
2023/04/28 06:43:43;;;;;;;15.85;9.15;;;;;;;;;;4998214;28;20452;-80
2023/04/28 06:46:10;;;;;;;19.23;9.40;;;;;;;;;;5013656;28;20029;-80
2023/04/28 06:48:36;;;;;;;17.33;9.18;;;;;;;;;;4995878;28;20381;-80
2023/04/28 06:51:02;;;;;;;16.42;8.27;;;;;;;;;;5013271;28;20493;-79
2023/04/28 06:53:28;;;;;;;19.58;9.15;;;;;;;;;;5012975;28;20029;-79
2023/04/28 06:55:55;;;;;;;15.82;8.68;;;;;;;;;;5013484;28;20033;-80
2023/04/28 06:58:21;;;;;;;16.67;8.95;;;;;;;;;;5006827;28;20468;-80
2023/04/28 07:00:47;;;;;;;17.20;9.07;;;;;;;;;;5013152;28;20532;-80
2023/04/28 07:03:13;;;;;;;18.52;9.93;;;;;;;;;;5010837;28;20018;-80
2023/04/28 07:05:49;;;;;;;15.73;8.77;;;;;;;;;;5025350;28;20030;-79
2023/04/28 07:08:16;;;;;;;20.08;10.32;;;;;;;;;;5034350;28;20439;-78
2023/04/28 07:10:42;;;;;;;19.27;9.27;;;;;;;;;;5035159;28;20029;-78
2023/04/28 07:13:08;;;;;;;23.30;10.40;;;;;;;;;;5033000;28;20120;-78
2023/04/28 07:15:34;;;;;;;19.75;10.50;;;;;;;;;;5030562;28;20022;-78
2023/04/28 07:18:00;;;;;;;17.67;9.50;;;;;;;;;;5033548;28;20025;-78
2023/04/28 07:20:26;;;;;;;19.38;10.18;;;;;;;;;;5013952;28;20030;-78
2023/04/28 07:22:52;;;;;;;16.33;9.77;;;;;;;;;;5013433;28;20018;-78
2023/04/28 07:25:18;;;;;;;19.63;10.25;;;;;;;;;;5013932;28;20594;-78
2023/04/28 07:27:45;;;;;;;21.70;9.40;;;;;;;;;;5019925;28;20029;-78
2023/04/28 07:30:12;;;;;;;18.40;10.85;;;;;;;;;;5033902;28;20683;-79
2023/04/28 07:32:38;;;;;;;18.10;9.73;;;;;;;;;;5027272;28;20053;-77
2023/04/28 07:35:04;;;;;;;19.05;10.68;;;;;;;;;;5033092;28;20029;-77
2023/04/28 07:37:30;;;;;;;20.65;9.85;;;;;;;;;;5014892;28;20025;-77
2023/04/28 07:39:56;;;;;;;18.63;10.10;;;;;;;;;;5016953;28;20036;-77
2023/04/28 07:42:22;;;;;;;17.85;9.90;;;;;;;;;;5009218;28;20036;-77
2023/04/28 07:44:51;;;;;;;17.25;8.90;;;;;;;;;;5014534;28;20034;-77
2023/04/28 07:47:17;;;;;;;19.48;10.07;;;;;;;;;;5028099;28;20464;-77
2023/04/28 07:49:44;;;;;;;17.00;9.05;;;;;;;;;;5032151;28;20107;-77
2023/04/28 07:52:10;;;;;;;19.85;10.18;;;;;;;;;;5014536;28;20029;-77
2023/04/28 07:54:36;;;;;;;18.55;10.23;;;;;;;;;;5029913;28;20029;-78
2023/04/28 07:57:04;;;;;;;16.65;10.43;;;;;;;;;;4995112;28;20029;-77
2023/04/28 07:59:30;;;;;;;18.25;10.60;;;;;;;;;;5010630;28;20029;-78
2023/04/28 08:01:56;;;;;;;22.00;11.75;;;;;;;;;;5024481;28;20029;-77
2023/04/28 08:04:22;;;;;;;19.33;10.38;;;;;;;;;;5038019;28;20017;-78
2023/04/28 08:06:48;;;;;;;16.80;9.82;;;;;;;;;;5038782;28;20442;-78
2023/04/28 08:09:15;;;;;;;16.20;9.55;;;;;;;;;;5019570;28;20364;-78
2023/04/28 08:11:41;;;;;;;17.50;9.48;;;;;;;;;;5019957;28;20026;-78
2023/04/28 08:14:07;;;;;;;19.73;10.68;;;;;;;;;;5018330;28;20025;-78
2023/04/28 08:16:35;;;;;;;20.58;11.43;;;;;;;;;;5025998;28;20491;-78
2023/04/28 08:19:02;;;;;;;14.77;9.23;;;;;;;;;;5026159;28;20025;-78
2023/04/28 08:21:28;;;;;;;21.20;9.50;;;;;;;;;;5020868;28;20037;-78
2023/04/28 08:23:54;;;;;;;17.83;10.13;;;;;;;;;;5026281;28;20024;-78
2023/04/28 08:26:20;;;;;;;20.30;12.48;;;;;;;;;;5026850;28;20716;-78
2023/04/28 08:28:46;;;;;;;23.63;10.93;;;;;;;;;;5035785;28;20021;-78
2023/04/28 08:31:12;;;;;;;17.60;9.55;;;;;;;;;;5018355;28;20120;-78
2023/04/28 08:33:38;;;;;;;17.90;10.52;;;;;;;;;;5013866;28;20184;-79
2023/04/28 08:36:05;;;;;;;18.13;10.48;;;;;;;;;;5027921;28;20033;-79
2023/04/28 08:38:31;;;;;;;16.98;10.00;;;;;;;;;;5018945;28;20026;-80
2023/04/28 08:40:57;;;;;;;15.77;9.50;;;;;;;;;;5018282;28;20038;-80
2023/04/28 08:43:24;;;;;;;16.50;9.90;;;;;;;;;;5017603;28;20033;-80
2023/04/28 08:45:50;;;;;;;19.27;8.98;;;;;;;;;;5016174;28;20026;-80
2023/04/28 08:48:20;;;;;;;20.92;12.20;;;;;;;;;;5014317;28;20030;-80
2023/04/28 08:50:51;;;;;;;15.27;9.48;;;;;;;;;;5018912;28;20037;-80
2023/04/28 08:53:24;;;;;;;16.40;9.98;;;;;;;;;;5019940;28;20028;-80
2023/04/28 08:56:00;;;;;;;18.20;10.57;;;;;;;;;;5023022;28;20032;-80
2023/04/28 08:58:27;;;;;;;15.48;9.98;;;;;;;;;;5020443;28;20034;-80
2023/04/28 09:00:53;;;;;;;18.55;10.13;;;;;;;;;;5024649;28;20037;-79
2023/04/28 09:03:20;;;;;;;17.27;9.82;;;;;;;;;;5031561;28;20048;-80
2023/04/28 09:05:48;;;;;;;17.20;9.27;;;;;;;;;;5028504;28;20030;-80
2023/04/28 09:08:14;;;;;;;17.73;10.55;;;;;;;;;;5030056;28;20499;-80
2023/04/28 09:10:40;;;;;;;17.90;11.07;;;;;;;;;;5025162;28;20026;-81
2023/04/28 09:13:06;;;;;;;16.00;10.23;;;;;;;;;;5020600;28;20053;-80
2023/04/28 09:15:33;;;;;;;13.02;8.25;;;;;;;;;;5025349;28;20053;-81
2023/04/28 09:17:59;;;;;;;17.42;9.70;;;;;;;;;;5044409;28;20041;-81
2023/04/28 09:20:26;;;;;;;14.35;9.10;;;;;;;;;;5031465;28;20392;-81
2023/04/28 09:22:54;;;;;;;14.70;8.70;;;;;;;;;;5021999;28;20105;-80
2023/04/28 09:25:21;;;;;;;14.52;9.90;;;;;;;;;;5031720;28;20081;-80
2023/04/28 09:27:47;;;;;;;21.63;10.88;;;;;;;;;;5021166;28;20033;-80
2023/04/28 09:30:14;;;;;;;15.05;8.18;;;;;;;;;;5021541;28;20387;-80
2023/04/28 09:32:40;;;;;;;17.20;9.05;;;;;;;;;;5026045;28;20045;-81
2023/04/28 09:35:07;;;;;;;15.35;9.85;;;;;;;;;;5023527;28;20030;-80
2023/04/28 09:37:36;;;;;;;16.38;9.30;;;;;;;;;;5023667;28;20021;-81
2023/04/28 09:40:06;;;;;;;15.35;10.13;;;;;;;;;;5035097;28;20111;-81
2023/04/28 09:42:33;;;;;;;15.05;10.02;;;;;;;;;;5022253;28;20029;-80
2023/04/28 09:45:01;;;;;;;18.58;10.48;;;;;;;;;;5023045;28;20029;-80
2023/04/28 09:47:27;;;;;;;16.88;9.00;;;;;;;;;;5023670;28;20095;-80
2023/04/28 09:49:58;;;;;;;16.27;9.68;;;;;;;;;;5024346;28;20029;-80
2023/04/28 09:52:25;;;;;;;16.02;10.77;;;;;;;;;;5036860;28;20025;-80
2023/04/28 09:54:52;;;;;;;14.77;9.35;;;;;;;;;;5025027;28;20024;-80
2023/04/28 09:57:18;;;;;;;17.00;10.48;;;;;;;;;;5040820;28;20036;-80
2023/04/28 09:59:48;;;;;;;16.45;10.80;;;;;;;;;;5040907;28;20045;-80
2023/04/28 10:02:19;;;;;;;14.15;9.32;;;;;;;;;;5018985;28;20022;-80
2023/04/28 10:04:45;;;;;;;14.00;9.48;;;;;;;;;;5028652;28;20025;-80
2023/04/28 10:07:13;;;;;;;16.77;11.32;;;;;;;;;;5016797;28;20456;-80
2023/04/28 10:09:42;;;;;;;19.42;11.45;;;;;;;;;;5022781;28;20483;-80
2023/04/28 10:12:09;;;;;;;21.08;10.73;;;;;;;;;;5034582;28;20025;-80
2023/04/28 10:14:36;;;;;;;16.67;10.68;;;;;;;;;;5030456;28;20037;-80
2023/04/28 10:17:16;;;;;;;19.23;11.80;;;;;;;;;;5046467;28;20060;-80
2023/04/28 10:19:46;;;;;;;16.52;10.27;;;;;;;;;;5021559;28;20116;-81
2023/04/28 10:22:18;;;;;;;15.73;10.52;;;;;;;;;;5022854;28;20128;-80
2023/04/28 10:24:54;;;;;;;18.53;11.07;;;;;;;;;;5031523;28;20104;-81
2023/04/28 10:27:20;;;;;;;16.38;10.63;;;;;;;;;;5031205;28;20033;-81
2023/04/28 10:29:46;;;;;;;14.07;8.77;;;;;;;;;;5023369;28;20475;-80
2023/04/28 10:32:16;;;;;;;17.95;10.52;;;;;;;;;;5019220;28;20049;-80
2023/04/28 10:34:42;;;;;;;;;;;;;;;;;;5017700;28;20056;-80
2023/04/28 10:37:17;;;;;;;14.57;9.65;;;;;;;;;;5011092;28;20013;-80
2023/04/28 10:40:02;;;;;;;15.90;10.52;;;;;;;;;;4995842;28;20033;-81
2023/04/28 10:42:47;;;;;;;14.27;8.43;;;;;;;;;;4996535;28;20034;-81
2023/04/28 10:45:13;;;;;;;16.90;10.27;;;;;;;;;;4996349;28;20452;-81
2023/04/28 10:48:02;;;;;;;16.08;10.88;;;;;;;;;;5012921;28;20464;-81
2023/04/28 10:50:30;;;;;;;14.93;9.75;;;;;;;;;;5015823;28;20044;-80
2023/04/28 10:52:56;;;;;;;14.80;10.15;;;;;;;;;;5015729;28;20076;-80
2023/04/28 10:55:30;;;;;;;18.08;10.95;;;;;;;;;;5031371;28;20021;-80
2023/04/28 10:58:15;;;;;;;14.90;10.30;;;;;;;;;;5035142;28;20033;-80
2023/04/28 11:00:41;;;;;;;15.52;11.07;;;;;;;;;;5019173;28;20099;-80
2023/04/28 11:03:07;;;;;;;15.27;9.88;;;;;;;;;;5033389;28;20037;-80
2023/04/28 11:06:01;;;;;;;16.20;10.38;;;;;;;;;;5030073;28;20116;-79
2023/04/28 11:08:32;;;;;;;18.25;11.30;;;;;;;;;;5023050;28;20030;-79
2023/04/28 11:10:57;;;;;;;;;;;;;;;;;;5017047;28;20061;-79
2023/04/28 11:13:33;;;;;;;17.23;11.18;;;;;;;;;;5015739;28;19928;-78
2023/04/28 11:16:05;;;;;;;18.08;10.60;;;;;;;;;;5025512;28;20112;-79
2023/04/28 11:18:40;;;;;;;16.55;11.25;;;;;;;;;;5018373;28;20631;-79
2023/04/28 11:21:06;;;;;;;19.58;11.48;;;;;;;;;;5016072;28;20120;-79
2023/04/28 11:23:33;;;;;;;17.95;10.77;;;;;;;;;;5009948;28;20109;-79
2023/04/28 11:25:59;;;;;;;17.58;12.07;;;;;;;;;;5013416;28;20030;-79
2023/04/28 11:28:25;;;;;;;13.48;9.48;;;;;;;;;;5013344;28;20025;-79
2023/04/28 11:30:51;;;;;;;14.68;10.32;;;;;;;;;;5009803;28;20121;-79
2023/04/28 11:33:23;;;;;;;16.20;11.15;;;;;;;;;;5023500;28;20080;-79
2023/04/28 11:35:49;;;;;;;17.05;12.25;;;;;;;;;;5019431;28;20069;-79
2023/04/28 11:38:15;;;;;;;22.90;12.95;;;;;;;;;;5009076;28;20113;-78
2023/04/28 11:40:55;;;;;;;17.88;11.68;;;;;;;;;;4998706;28;20070;-78
2023/04/28 11:43:28;;;;;;;19.45;12.10;;;;;;;;;;5031467;28;20022;-78
2023/04/28 11:46:09;;;;;;;17.48;11.60;;;;;;;;;;5031026;28;20080;-78
2023/04/28 11:48:35;;;;;;;17.75;11.68;;;;;;;;;;5019403;28;20036;-79
2023/04/28 11:51:01;;;;;;;17.52;11.77;;;;;;;;;;5019922;28;20030;-79
2023/04/28 11:53:45;;;;;;;18.77;12.20;;;;;;;;;;5017552;28;20083;-79
2023/04/28 11:56:12;;;;;;;19.75;12.98;;;;;;;;;;5018800;28;20105;-78
2023/04/28 11:58:39;;;;;;;17.65;12.25;;;;;;;;;;5018365;28;20270;-79
2023/04/28 12:01:08;;;;;;;15.77;11.68;;;;;;;;;;5016470;28;20073;-79
2023/04/28 12:03:42;;;;;;;20.13;11.85;;;;;;;;;;5005085;28;20088;-79
2023/04/28 12:06:08;;;;;;;16.58;11.77;;;;;;;;;;4997305;28;20117;-79
2023/04/28 12:08:34;;;;;;;17.17;11.63;;;;;;;;;;4998846;28;20033;-78
2023/04/28 12:11:11;;;;;;;16.60;11.52;;;;;;;;;;5016210;28;20415;-78
2023/04/28 12:13:38;;;;;;;15.98;10.70;;;;;;;;;;5016903;28;20056;-78
2023/04/28 12:16:05;;;;;;;15.18;10.85;;;;;;;;;;5016786;28;20034;-79
2023/04/28 12:18:38;;;;;;;18.33;11.57;;;;;;;;;;5016876;28;20034;-79
2023/04/28 12:21:04;;;;;;;16.98;11.57;;;;;;;;;;5016989;28;20030;-79
2023/04/28 12:23:33;;;;;;;16.60;11.75;;;;;;;;;;5016631;28;20022;-78
2023/04/28 12:26:00;;;;;;;18.65;11.75;;;;;;;;;;5016579;28;20374;-79
2023/04/28 12:28:38;;;;;;;16.00;12.20;;;;;;;;;;5031446;28;20056;-79
2023/04/28 12:31:05;;;;;;;18.10;11.95;;;;;;;;;;5017104;28;20033;-78
2023/04/28 12:33:36;;;;;;;17.92;12.50;;;;;;;;;;5017143;28;20452;-79
2023/04/28 12:36:02;;;;;;;17.52;12.48;;;;;;;;;;5016889;28;20053;-79
2023/04/28 12:38:29;;;;;;;19.05;12.85;;;;;;;;;;5017008;28;20030;-78
2023/04/28 12:40:55;;;;;;;18.98;13.80;;;;;;;;;;5018642;28;20124;-78
2023/04/28 12:43:22;;;;;;;19.35;12.98;;;;;;;;;;5025638;28;20091;-78
2023/04/28 12:45:48;;;;;;;17.90;12.80;;;;;;;;;;5010145;28;20033;-78
2023/04/28 12:48:14;;;;;;;19.52;13.13;;;;;;;;;;4995584;28;20070;-78
2023/04/28 12:50:40;;;;;;;18.23;13.52;;;;;;;;;;5000804;28;20069;-78
2023/04/28 12:53:06;;;;;;;17.40;12.50;;;;;;;;;;4995241;28;20022;-78
2023/04/28 12:55:32;;;;;;;20.92;13.07;;;;;;;;;;4996128;28;20393;-78
2023/04/28 12:57:58;;;;;;;20.15;13.23;;;;;;;;;;5006943;28;20085;-77
2023/04/28 13:00:25;;;;;;;18.13;13.20;;;;;;;;;;5004540;28;20042;-77
2023/04/28 13:02:51;;;;;;;19.25;13.63;;;;;;;;;;5014103;28;20022;-77
2023/04/28 13:05:18;;;;;;;14.80;11.98;;;;;;;;;;5013986;28;20032;-78
2023/04/28 13:07:44;;;;;;;15.90;12.15;;;;;;;;;;5014104;28;20553;-77
2023/04/28 13:10:22;;;;;;;17.13;12.90;;;;;;;;;;5015073;28;20060;-78
2023/04/28 13:12:48;;;;;;;15.73;12.35;;;;;;;;;;4996685;28;20447;-78
2023/04/28 13:15:14;;;;;;;17.08;13.18;;;;;;;;;;5013345;28;20432;-78
2023/04/28 13:17:40;;;;;;;17.17;13.00;;;;;;;;;;5014137;28;20057;-78
2023/04/28 13:20:06;;;;;;;18.08;13.15;;;;;;;;;;5029247;28;20056;-78
2023/04/28 13:22:32;;;;;;;16.90;13.57;;;;;;;;;;5014780;28;20026;-78
2023/04/28 13:24:58;;;;;;;19.42;14.57;;;;;;;;;;5015537;28;20532;-78
2023/04/28 13:27:24;;;;;;;17.55;12.88;;;;;;;;;;5015233;28;20076;-78
2023/04/28 13:29:50;;;;;;;17.90;13.32;;;;;;;;;;4997654;28;20053;-78
2023/04/28 13:32:16;;;;;;;16.95;12.77;;;;;;;;;;5000236;28;20057;-78
2023/04/28 13:34:43;;;;;;;18.75;13.20;;;;;;;;;;5000810;28;20049;-79
2023/04/28 13:37:09;;;;;;;16.00;12.45;;;;;;;;;;5014575;28;20030;-78
2023/04/28 13:39:35;;;;;;;14.63;10.52;;;;;;;;;;5013782;28;20100;-78
2023/04/28 13:42:01;;;;;;;12.43;8.45;;;;;;;;;;5010144;28;20132;-78
2023/04/28 13:44:27;;;;;;;13.70;10.68;;;;;;;;;;5011365;28;20030;-78
2023/04/28 13:46:53;;;;;;;11.70;9.73;;;;;;;;;;5022226;28;20021;-78
2023/04/28 13:49:21;;;;;;;13.98;9.73;;;;;;;;;;5033811;28;20113;-78
2023/04/28 13:51:48;;;;;;;16.65;10.90;;;;;;;;;;5027161;28;20054;-78
2023/04/28 13:54:14;;;;;;;13.95;11.05;;;;;;;;;;5016813;28;20101;-78
2023/04/28 13:56:40;;;;;;;15.82;10.80;;;;;;;;;;5016280;28;20056;-78
2023/04/28 13:59:06;;;;;;;13.77;10.98;;;;;;;;;;5003685;28;20029;-78
2023/04/28 14:01:32;;;;;;;13.35;9.07;;;;;;;;;;5014823;28;20030;-78
2023/04/28 14:03:58;;;;;;;13.05;9.80;;;;;;;;;;5015158;28;20029;-78
2023/04/28 14:06:24;;;;;;;13.75;9.88;;;;;;;;;;5014793;28;20033;-79
2023/04/28 14:08:50;;;;;;;15.15;9.35;;;;;;;;;;5029175;28;20080;-79
2023/04/28 14:11:16;;;;;;;13.15;11.07;;;;;;;;;;5013895;28;20417;-78
2023/04/28 14:13:43;;;;;;;13.95;10.77;;;;;;;;;;5010861;28;20033;-78
2023/04/28 14:16:09;;;;;;;13.10;9.82;;;;;;;;;;5007003;28;20464;-78
2023/04/28 14:18:35;;;;;;;15.27;11.70;;;;;;;;;;5001690;28;20057;-78
2023/04/28 14:21:02;;;;;;;13.40;10.23;;;;;;;;;;5015043;28;20045;-79
2023/04/28 14:23:28;;;;;;;14.65;11.32;;;;;;;;;;5015142;28;20034;-79
2023/04/28 14:25:55;;;;;;;13.63;9.68;;;;;;;;;;5018529;28;20021;-78
2023/04/28 14:28:21;;;;;;;11.98;9.73;;;;;;;;;;5034868;28;20029;-78